sensor_id;sensor_type;location;lat;lon;timestamp;P1;durP1;ratioP1;P2;durP2;ratioP2
80179;SDS011;69505;52.134;5.438;2023-06-04T00:02:18;2.85;;;1.50;;
80179;SDS011;69505;52.134;5.438;2023-06-04T00:04:44;4.88;;;1.85;;
80179;SDS011;69505;52.134;5.438;2023-06-04T00:07:11;3.65;;;1.73;;
80179;SDS011;69505;52.134;5.438;2023-06-04T00:09:38;4.00;;;1.80;;
80179;SDS011;69505;52.134;5.438;2023-06-04T00:12:04;3.03;;;1.85;;
80179;SDS011;69505;52.134;5.438;2023-06-04T00:14:31;3.42;;;1.73;;
80179;SDS011;69505;52.134;5.438;2023-06-04T00:16:58;4.03;;;2.63;;
80179;SDS011;69505;52.134;5.438;2023-06-04T00:19:24;5.30;;;3.10;;
80179;SDS011;69505;52.134;5.438;2023-06-04T00:21:51;5.40;;;2.72;;
80179;SDS011;69505;52.134;5.438;2023-06-04T00:24:18;5.75;;;2.78;;
80179;SDS011;69505;52.134;5.438;2023-06-04T00:26:44;3.78;;;2.25;;
80179;SDS011;69505;52.134;5.438;2023-06-04T00:29:11;3.33;;;2.10;;
80179;SDS011;69505;52.134;5.438;2023-06-04T00:31:37;4.07;;;2.20;;
80179;SDS011;69505;52.134;5.438;2023-06-04T00:34:04;2.75;;;1.80;;
80179;SDS011;69505;52.134;5.438;2023-06-04T00:36:31;2.47;;;1.75;;
80179;SDS011;69505;52.134;5.438;2023-06-04T00:38:58;2.80;;;1.70;;
80179;SDS011;69505;52.134;5.438;2023-06-04T00:41:25;2.33;;;1.48;;
80179;SDS011;69505;52.134;5.438;2023-06-04T00:43:52;4.97;;;2.28;;
80179;SDS011;69505;52.134;5.438;2023-06-04T00:46:23;4.22;;;1.80;;
80179;SDS011;69505;52.134;5.438;2023-06-04T00:48:52;2.30;;;1.52;;
80179;SDS011;69505;52.134;5.438;2023-06-04T00:51:19;5.85;;;1.90;;
80179;SDS011;69505;52.134;5.438;2023-06-04T00:53:50;3.15;;;1.95;;
80179;SDS011;69505;52.134;5.438;2023-06-04T00:56:17;2.30;;;1.23;;
80179;SDS011;69505;52.134;5.438;2023-06-04T00:58:45;4.85;;;2.15;;
80179;SDS011;69505;52.134;5.438;2023-06-04T01:03:58;3.33;;;2.03;;
80179;SDS011;69505;52.134;5.438;2023-06-04T01:09:09;1.60;;;0.80;;
80179;SDS011;69505;52.134;5.438;2023-06-04T01:11:36;2.85;;;1.55;;
80179;SDS011;69505;52.134;5.438;2023-06-04T01:14:05;2.28;;;1.60;;
80179;SDS011;69505;52.134;5.438;2023-06-04T01:16:47;3.58;;;1.75;;
80179;SDS011;69505;52.134;5.438;2023-06-04T01:22:15;2.25;;;1.60;;
80179;SDS011;69505;52.134;5.438;2023-06-04T01:24:53;2.55;;;1.05;;
80179;SDS011;69505;52.134;5.438;2023-06-04T01:27:22;3.42;;;1.73;;
80179;SDS011;69505;52.134;5.438;2023-06-04T01:29:49;2.13;;;1.58;;
80179;SDS011;69505;52.134;5.438;2023-06-04T01:32:17;3.15;;;1.70;;
80179;SDS011;69505;52.134;5.438;2023-06-04T01:34:45;2.67;;;1.50;;
80179;SDS011;69505;52.134;5.438;2023-06-04T01:37:12;2.75;;;1.73;;
80179;SDS011;69505;52.134;5.438;2023-06-04T01:39:39;4.10;;;1.90;;
80179;SDS011;69505;52.134;5.438;2023-06-04T01:42:06;3.50;;;1.60;;
80179;SDS011;69505;52.134;5.438;2023-06-04T01:44:33;2.15;;;1.55;;
80179;SDS011;69505;52.134;5.438;2023-06-04T01:47:00;2.25;;;1.63;;
80179;SDS011;69505;52.134;5.438;2023-06-04T01:49:27;3.22;;;1.65;;
80179;SDS011;69505;52.134;5.438;2023-06-04T01:51:53;3.35;;;2.10;;
80179;SDS011;69505;52.134;5.438;2023-06-04T01:54:22;3.22;;;1.27;;
80179;SDS011;69505;52.134;5.438;2023-06-04T01:56:48;2.35;;;1.52;;
80179;SDS011;69505;52.134;5.438;2023-06-04T01:59:15;7.40;;;1.50;;
80179;SDS011;69505;52.134;5.438;2023-06-04T02:01:42;2.38;;;1.45;;
80179;SDS011;69505;52.134;5.438;2023-06-04T02:04:09;3.25;;;1.55;;
80179;SDS011;69505;52.134;5.438;2023-06-04T02:06:36;3.17;;;1.80;;
80179;SDS011;69505;52.134;5.438;2023-06-04T02:09:03;3.92;;;1.90;;
80179;SDS011;69505;52.134;5.438;2023-06-04T02:11:30;2.00;;;1.63;;
80179;SDS011;69505;52.134;5.438;2023-06-04T02:13:56;7.22;;;1.80;;
80179;SDS011;69505;52.134;5.438;2023-06-04T02:16:23;4.55;;;1.88;;
80179;SDS011;69505;52.134;5.438;2023-06-04T02:18:50;2.80;;;1.55;;
80179;SDS011;69505;52.134;5.438;2023-06-04T02:21:16;1.73;;;0.85;;
80179;SDS011;69505;52.134;5.438;2023-06-04T02:23:43;3.55;;;2.03;;
80179;SDS011;69505;52.134;5.438;2023-06-04T02:26:10;4.28;;;2.00;;
80179;SDS011;69505;52.134;5.438;2023-06-04T02:28:37;4.68;;;1.85;;
80179;SDS011;69505;52.134;5.438;2023-06-04T02:31:03;2.13;;;1.67;;
80179;SDS011;69505;52.134;5.438;2023-06-04T02:33:30;3.13;;;1.98;;
80179;SDS011;69505;52.134;5.438;2023-06-04T02:35:56;3.22;;;2.00;;
80179;SDS011;69505;52.134;5.438;2023-06-04T02:38:23;2.42;;;1.95;;
80179;SDS011;69505;52.134;5.438;2023-06-04T02:40:50;5.40;;;1.90;;
80179;SDS011;69505;52.134;5.438;2023-06-04T02:43:17;5.32;;;2.20;;
80179;SDS011;69505;52.134;5.438;2023-06-04T02:45:43;4.28;;;1.10;;
80179;SDS011;69505;52.134;5.438;2023-06-04T02:48:10;4.05;;;2.38;;
80179;SDS011;69505;52.134;5.438;2023-06-04T02:50:36;3.25;;;1.90;;
80179;SDS011;69505;52.134;5.438;2023-06-04T02:53:03;4.95;;;2.30;;
80179;SDS011;69505;52.134;5.438;2023-06-04T02:55:29;2.38;;;1.90;;
80179;SDS011;69505;52.134;5.438;2023-06-04T02:57:56;3.75;;;2.33;;
80179;SDS011;69505;52.134;5.438;2023-06-04T03:00:23;4.53;;;2.00;;
80179;SDS011;69505;52.134;5.438;2023-06-04T03:02:49;3.83;;;2.05;;
80179;SDS011;69505;52.134;5.438;2023-06-04T03:05:16;4.75;;;2.47;;
80179;SDS011;69505;52.134;5.438;2023-06-04T03:07:45;4.15;;;2.00;;
80179;SDS011;69505;52.134;5.438;2023-06-04T03:10:13;2.92;;;1.70;;
80179;SDS011;69505;52.134;5.438;2023-06-04T03:12:41;3.25;;;1.85;;
80179;SDS011;69505;52.134;5.438;2023-06-04T03:15:08;3.80;;;2.05;;
80179;SDS011;69505;52.134;5.438;2023-06-04T03:17:35;4.72;;;2.25;;
80179;SDS011;69505;52.134;5.438;2023-06-04T03:20:02;3.42;;;2.40;;
80179;SDS011;69505;52.134;5.438;2023-06-04T03:22:30;3.90;;;2.17;;
80179;SDS011;69505;52.134;5.438;2023-06-04T03:24:57;4.15;;;2.28;;
80179;SDS011;69505;52.134;5.438;2023-06-04T03:27:24;3.38;;;2.08;;
80179;SDS011;69505;52.134;5.438;2023-06-04T03:29:50;3.78;;;1.63;;
80179;SDS011;69505;52.134;5.438;2023-06-04T03:32:17;3.75;;;2.28;;
80179;SDS011;69505;52.134;5.438;2023-06-04T03:34:44;3.72;;;2.00;;
80179;SDS011;69505;52.134;5.438;2023-06-04T03:37:10;4.57;;;2.35;;
80179;SDS011;69505;52.134;5.438;2023-06-04T03:39:37;3.78;;;2.40;;
80179;SDS011;69505;52.134;5.438;2023-06-04T03:42:04;5.03;;;2.45;;
80179;SDS011;69505;52.134;5.438;2023-06-04T03:44:31;3.03;;;2.08;;
80179;SDS011;69505;52.134;5.438;2023-06-04T03:46:58;2.97;;;2.20;;
80179;SDS011;69505;52.134;5.438;2023-06-04T03:49:25;3.10;;;2.10;;
80179;SDS011;69505;52.134;5.438;2023-06-04T03:51:51;4.47;;;2.15;;
80179;SDS011;69505;52.134;5.438;2023-06-04T03:54:18;3.13;;;2.20;;
80179;SDS011;69505;52.134;5.438;2023-06-04T03:56:45;3.45;;;2.35;;
80179;SDS011;69505;52.134;5.438;2023-06-04T03:59:12;4.07;;;2.33;;
80179;SDS011;69505;52.134;5.438;2023-06-04T04:01:38;5.30;;;2.22;;
80179;SDS011;69505;52.134;5.438;2023-06-04T04:04:05;3.35;;;2.28;;
80179;SDS011;69505;52.134;5.438;2023-06-04T04:06:32;6.07;;;2.30;;
80179;SDS011;69505;52.134;5.438;2023-06-04T04:08:58;4.60;;;2.78;;
80179;SDS011;69505;52.134;5.438;2023-06-04T04:11:25;3.78;;;2.17;;
80179;SDS011;69505;52.134;5.438;2023-06-04T04:13:52;5.50;;;2.28;;
80179;SDS011;69505;52.134;5.438;2023-06-04T04:16:18;5.43;;;2.47;;
80179;SDS011;69505;52.134;5.438;2023-06-04T04:18:45;4.05;;;2.78;;
80179;SDS011;69505;52.134;5.438;2023-06-04T04:21:12;3.72;;;2.42;;
80179;SDS011;69505;52.134;5.438;2023-06-04T04:23:39;3.50;;;2.55;;
80179;SDS011;69505;52.134;5.438;2023-06-04T04:26:09;5.32;;;2.10;;
80179;SDS011;69505;52.134;5.438;2023-06-04T04:28:43;5.22;;;2.35;;
80179;SDS011;69505;52.134;5.438;2023-06-04T04:31:10;4.85;;;2.60;;
80179;SDS011;69505;52.134;5.438;2023-06-04T04:33:37;3.33;;;2.40;;
80179;SDS011;69505;52.134;5.438;2023-06-04T04:36:06;3.45;;;2.15;;
80179;SDS011;69505;52.134;5.438;2023-06-04T04:38:40;3.92;;;2.33;;
80179;SDS011;69505;52.134;5.438;2023-06-04T04:41:07;4.22;;;2.47;;
80179;SDS011;69505;52.134;5.438;2023-06-04T04:43:36;5.22;;;2.53;;
80179;SDS011;69505;52.134;5.438;2023-06-04T04:48:31;4.63;;;2.53;;
80179;SDS011;69505;52.134;5.438;2023-06-04T04:50:57;3.00;;;2.33;;
80179;SDS011;69505;52.134;5.438;2023-06-04T04:53:25;3.95;;;2.00;;
80179;SDS011;69505;52.134;5.438;2023-06-04T04:55:52;5.07;;;2.55;;
80179;SDS011;69505;52.134;5.438;2023-06-04T04:58:18;5.57;;;2.13;;
80179;SDS011;69505;52.134;5.438;2023-06-04T05:00:45;4.75;;;2.42;;
80179;SDS011;69505;52.134;5.438;2023-06-04T05:03:13;4.55;;;2.00;;
80179;SDS011;69505;52.134;5.438;2023-06-04T05:05:40;4.03;;;2.55;;
80179;SDS011;69505;52.134;5.438;2023-06-04T05:08:07;4.75;;;2.58;;
80179;SDS011;69505;52.134;5.438;2023-06-04T05:10:35;4.32;;;2.47;;
80179;SDS011;69505;52.134;5.438;2023-06-04T05:13:02;7.30;;;2.63;;
80179;SDS011;69505;52.134;5.438;2023-06-04T05:15:29;4.32;;;2.53;;
80179;SDS011;69505;52.134;5.438;2023-06-04T05:17:55;5.28;;;2.95;;
80179;SDS011;69505;52.134;5.438;2023-06-04T05:20:22;4.35;;;2.65;;
80179;SDS011;69505;52.134;5.438;2023-06-04T05:22:49;5.50;;;2.20;;
80179;SDS011;69505;52.134;5.438;2023-06-04T05:25:16;5.28;;;2.35;;
80179;SDS011;69505;52.134;5.438;2023-06-04T05:27:43;5.43;;;2.70;;
80179;SDS011;69505;52.134;5.438;2023-06-04T05:30:10;6.53;;;2.67;;
80179;SDS011;69505;52.134;5.438;2023-06-04T05:32:37;4.50;;;2.05;;
80179;SDS011;69505;52.134;5.438;2023-06-04T05:35:07;7.80;;;2.67;;
80179;SDS011;69505;52.134;5.438;2023-06-04T05:37:35;7.13;;;2.75;;
80179;SDS011;69505;52.134;5.438;2023-06-04T05:40:04;3.00;;;2.20;;
80179;SDS011;69505;52.134;5.438;2023-06-04T05:42:32;3.58;;;2.38;;
80179;SDS011;69505;52.134;5.438;2023-06-04T05:44:59;7.38;;;2.15;;
80179;SDS011;69505;52.134;5.438;2023-06-04T05:47:26;5.05;;;2.47;;
80179;SDS011;69505;52.134;5.438;2023-06-04T05:49:55;4.03;;;2.40;;
80179;SDS011;69505;52.134;5.438;2023-06-04T05:52:22;6.90;;;2.55;;
80179;SDS011;69505;52.134;5.438;2023-06-04T05:54:49;7.75;;;3.00;;
80179;SDS011;69505;52.134;5.438;2023-06-04T05:57:16;5.65;;;2.30;;
80179;SDS011;69505;52.134;5.438;2023-06-04T05:59:42;3.40;;;1.70;;
80179;SDS011;69505;52.134;5.438;2023-06-04T06:02:09;4.28;;;2.50;;
80179;SDS011;69505;52.134;5.438;2023-06-04T06:04:36;5.88;;;2.22;;
80179;SDS011;69505;52.134;5.438;2023-06-04T06:07:03;5.65;;;2.42;;
80179;SDS011;69505;52.134;5.438;2023-06-04T06:09:30;4.57;;;2.25;;
80179;SDS011;69505;52.134;5.438;2023-06-04T06:11:56;6.20;;;2.22;;
80179;SDS011;69505;52.134;5.438;2023-06-04T06:14:24;3.92;;;2.25;;
80179;SDS011;69505;52.134;5.438;2023-06-04T06:16:50;4.82;;;2.10;;
80179;SDS011;69505;52.134;5.438;2023-06-04T06:19:17;4.70;;;2.42;;
80179;SDS011;69505;52.134;5.438;2023-06-04T06:21:44;5.90;;;2.38;;
80179;SDS011;69505;52.134;5.438;2023-06-04T06:24:11;5.90;;;2.30;;
80179;SDS011;69505;52.134;5.438;2023-06-04T06:26:38;5.38;;;2.40;;
80179;SDS011;69505;52.134;5.438;2023-06-04T06:29:04;3.97;;;2.83;;
80179;SDS011;69505;52.134;5.438;2023-06-04T06:31:32;4.75;;;2.17;;
80179;SDS011;69505;52.134;5.438;2023-06-04T06:33:58;4.82;;;2.20;;
80179;SDS011;69505;52.134;5.438;2023-06-04T06:36:25;3.97;;;2.10;;
80179;SDS011;69505;52.134;5.438;2023-06-04T06:38:52;5.13;;;2.53;;
80179;SDS011;69505;52.134;5.438;2023-06-04T06:41:19;4.80;;;2.10;;
80179;SDS011;69505;52.134;5.438;2023-06-04T06:43:45;5.57;;;2.53;;
80179;SDS011;69505;52.134;5.438;2023-06-04T06:46:12;3.40;;;2.10;;
80179;SDS011;69505;52.134;5.438;2023-06-04T06:48:38;3.95;;;2.42;;
80179;SDS011;69505;52.134;5.438;2023-06-04T06:51:05;5.63;;;2.30;;
80179;SDS011;69505;52.134;5.438;2023-06-04T06:53:32;4.72;;;1.92;;
80179;SDS011;69505;52.134;5.438;2023-06-04T06:55:59;3.47;;;1.27;;
80179;SDS011;69505;52.134;5.438;2023-06-04T06:58:25;5.30;;;1.45;;
80179;SDS011;69505;52.134;5.438;2023-06-04T07:00:52;4.45;;;2.15;;
80179;SDS011;69505;52.134;5.438;2023-06-04T07:03:20;4.80;;;2.10;;
80179;SDS011;69505;52.134;5.438;2023-06-04T07:05:48;3.00;;;1.95;;
80179;SDS011;69505;52.134;5.438;2023-06-04T07:08:14;5.25;;;1.63;;
80179;SDS011;69505;52.134;5.438;2023-06-04T07:10:42;5.05;;;2.22;;
80179;SDS011;69505;52.134;5.438;2023-06-04T07:13:09;3.20;;;1.48;;
80179;SDS011;69505;52.134;5.438;2023-06-04T07:15:35;2.78;;;1.98;;
80179;SDS011;69505;52.134;5.438;2023-06-04T07:18:02;3.08;;;1.85;;
80179;SDS011;69505;52.134;5.438;2023-06-04T07:20:29;5.50;;;1.65;;
80179;SDS011;69505;52.134;5.438;2023-06-04T07:22:56;3.97;;;1.67;;
80179;SDS011;69505;52.134;5.438;2023-06-04T07:25:23;6.93;;;1.77;;
80179;SDS011;69505;52.134;5.438;2023-06-04T07:27:50;5.40;;;2.17;;
80179;SDS011;69505;52.134;5.438;2023-06-04T07:30:16;3.40;;;1.38;;
80179;SDS011;69505;52.134;5.438;2023-06-04T07:32:47;4.47;;;2.30;;
80179;SDS011;69505;52.134;5.438;2023-06-04T07:35:14;6.38;;;2.20;;
80179;SDS011;69505;52.134;5.438;2023-06-04T07:37:41;4.93;;;2.00;;
80179;SDS011;69505;52.134;5.438;2023-06-04T07:40:11;6.63;;;2.00;;
80179;SDS011;69505;52.134;5.438;2023-06-04T07:42:38;5.00;;;1.70;;
80179;SDS011;69505;52.134;5.438;2023-06-04T07:45:09;4.85;;;1.55;;
80179;SDS011;69505;52.134;5.438;2023-06-04T07:47:36;4.80;;;1.17;;
80179;SDS011;69505;52.134;5.438;2023-06-04T07:50:03;4.38;;;1.60;;
80179;SDS011;69505;52.134;5.438;2023-06-04T07:52:31;5.18;;;1.60;;
80179;SDS011;69505;52.134;5.438;2023-06-04T07:54:59;3.85;;;1.23;;
80179;SDS011;69505;52.134;5.438;2023-06-04T07:57:26;5.15;;;1.50;;
80179;SDS011;69505;52.134;5.438;2023-06-04T07:59:52;4.28;;;1.25;;
80179;SDS011;69505;52.134;5.438;2023-06-04T08:02:19;5.50;;;0.90;;
80179;SDS011;69505;52.134;5.438;2023-06-04T08:04:46;3.53;;;1.40;;
80179;SDS011;69505;52.134;5.438;2023-06-04T08:07:13;3.15;;;1.20;;
80179;SDS011;69505;52.134;5.438;2023-06-04T08:09:39;5.05;;;1.00;;
80179;SDS011;69505;52.134;5.438;2023-06-04T08:12:06;2.35;;;1.33;;
80179;SDS011;69505;52.134;5.438;2023-06-04T08:14:36;3.72;;;1.30;;
80179;SDS011;69505;52.134;5.438;2023-06-04T08:17:02;2.83;;;1.10;;
80179;SDS011;69505;52.134;5.438;2023-06-04T08:19:29;3.40;;;1.38;;
80179;SDS011;69505;52.134;5.438;2023-06-04T08:21:56;2.92;;;1.25;;
80179;SDS011;69505;52.134;5.438;2023-06-04T08:24:23;2.58;;;0.77;;
80179;SDS011;69505;52.134;5.438;2023-06-04T08:26:49;3.42;;;0.95;;
80179;SDS011;69505;52.134;5.438;2023-06-04T08:29:16;4.47;;;1.23;;
80179;SDS011;69505;52.134;5.438;2023-06-04T08:31:43;3.80;;;1.33;;
80179;SDS011;69505;52.134;5.438;2023-06-04T08:34:10;3.22;;;1.20;;
80179;SDS011;69505;52.134;5.438;2023-06-04T08:36:36;4.05;;;1.23;;
80179;SDS011;69505;52.134;5.438;2023-06-04T08:39:03;6.20;;;1.50;;
80179;SDS011;69505;52.134;5.438;2023-06-04T08:41:43;2.92;;;1.13;;
80179;SDS011;69505;52.134;5.438;2023-06-04T08:44:16;2.67;;;0.77;;
80179;SDS011;69505;52.134;5.438;2023-06-04T08:46:43;4.65;;;1.40;;
80179;SDS011;69505;52.134;5.438;2023-06-04T08:49:12;3.42;;;1.33;;
80179;SDS011;69505;52.134;5.438;2023-06-04T08:51:39;4.93;;;0.73;;
80179;SDS011;69505;52.134;5.438;2023-06-04T08:54:07;4.53;;;1.60;;
80179;SDS011;69505;52.134;5.438;2023-06-04T08:59:05;4.70;;;1.27;;
80179;SDS011;69505;52.134;5.438;2023-06-04T09:01:34;4.45;;;1.20;;
80179;SDS011;69505;52.134;5.438;2023-06-04T09:04:05;3.15;;;1.10;;
80179;SDS011;69505;52.134;5.438;2023-06-04T09:06:39;2.47;;;0.88;;
80179;SDS011;69505;52.134;5.438;2023-06-04T09:09:08;4.57;;;1.27;;
80179;SDS011;69505;52.134;5.438;2023-06-04T09:11:38;2.78;;;1.00;;
80179;SDS011;69505;52.134;5.438;2023-06-04T09:14:10;5.93;;;1.33;;
80179;SDS011;69505;52.134;5.438;2023-06-04T09:16:52;3.08;;;1.23;;
80179;SDS011;69505;52.134;5.438;2023-06-04T09:19:21;3.03;;;1.20;;
80179;SDS011;69505;52.134;5.438;2023-06-04T09:21:52;3.10;;;1.20;;
80179;SDS011;69505;52.134;5.438;2023-06-04T09:24:23;4.45;;;1.30;;
80179;SDS011;69505;52.134;5.438;2023-06-04T09:26:51;3.28;;;1.25;;
80179;SDS011;69505;52.134;5.438;2023-06-04T09:29:18;5.55;;;1.70;;
80179;SDS011;69505;52.134;5.438;2023-06-04T09:31:45;1.58;;;0.90;;
80179;SDS011;69505;52.134;5.438;2023-06-04T09:34:14;2.75;;;1.20;;
80179;SDS011;69505;52.134;5.438;2023-06-04T09:36:43;2.80;;;1.10;;
80179;SDS011;69505;52.134;5.438;2023-06-04T09:39:16;2.83;;;1.17;;
80179;SDS011;69505;52.134;5.438;2023-06-04T09:41:43;3.00;;;1.38;;
80179;SDS011;69505;52.134;5.438;2023-06-04T09:44:10;2.47;;;1.00;;
80179;SDS011;69505;52.134;5.438;2023-06-04T09:46:38;3.20;;;1.35;;
80179;SDS011;69505;52.134;5.438;2023-06-04T09:49:05;2.67;;;1.25;;
80179;SDS011;69505;52.134;5.438;2023-06-04T09:51:32;4.07;;;1.40;;
80179;SDS011;69505;52.134;5.438;2023-06-04T09:54:00;4.35;;;2.13;;
80179;SDS011;69505;52.134;5.438;2023-06-04T09:56:28;4.75;;;1.10;;
80179;SDS011;69505;52.134;5.438;2023-06-04T09:58:57;3.72;;;1.45;;
80179;SDS011;69505;52.134;5.438;2023-06-04T10:01:28;5.43;;;1.38;;
80179;SDS011;69505;52.134;5.438;2023-06-04T10:03:58;6.72;;;1.35;;
80179;SDS011;69505;52.134;5.438;2023-06-04T10:06:32;4.47;;;1.20;;
80179;SDS011;69505;52.134;5.438;2023-06-04T10:09:07;4.07;;;1.08;;
80179;SDS011;69505;52.134;5.438;2023-06-04T10:11:37;3.08;;;1.10;;
80179;SDS011;69505;52.134;5.438;2023-06-04T10:14:14;3.05;;;1.42;;
80179;SDS011;69505;52.134;5.438;2023-06-04T10:16:47;4.18;;;1.35;;
80179;SDS011;69505;52.134;5.438;2023-06-04T10:19:16;2.78;;;1.02;;
80179;SDS011;69505;52.134;5.438;2023-06-04T10:21:44;4.30;;;1.17;;
80179;SDS011;69505;52.134;5.438;2023-06-04T10:24:12;3.22;;;1.27;;
80179;SDS011;69505;52.134;5.438;2023-06-04T10:26:41;3.78;;;0.80;;
80179;SDS011;69505;52.134;5.438;2023-06-04T10:29:08;3.80;;;1.58;;
80179;SDS011;69505;52.134;5.438;2023-06-04T10:31:36;1.98;;;0.82;;
80179;SDS011;69505;52.134;5.438;2023-06-04T10:34:03;3.92;;;1.20;;
80179;SDS011;69505;52.134;5.438;2023-06-04T10:36:30;4.78;;;1.30;;
80179;SDS011;69505;52.134;5.438;2023-06-04T10:38:56;3.38;;;1.00;;
80179;SDS011;69505;52.134;5.438;2023-06-04T10:41:23;6.45;;;1.10;;
80179;SDS011;69505;52.134;5.438;2023-06-04T10:43:51;3.28;;;1.20;;
80179;SDS011;69505;52.134;5.438;2023-06-04T10:46:36;3.75;;;1.10;;
80179;SDS011;69505;52.134;5.438;2023-06-04T10:49:08;4.15;;;1.00;;
80179;SDS011;69505;52.134;5.438;2023-06-04T10:51:37;3.15;;;1.10;;
80179;SDS011;69505;52.134;5.438;2023-06-04T10:54:03;3.95;;;0.98;;
80179;SDS011;69505;52.134;5.438;2023-06-04T10:56:34;3.10;;;1.30;;
80179;SDS011;69505;52.134;5.438;2023-06-04T10:59:12;4.32;;;1.23;;
80179;SDS011;69505;52.134;5.438;2023-06-04T11:01:40;2.55;;;1.10;;
80179;SDS011;69505;52.134;5.438;2023-06-04T11:04:17;2.75;;;1.08;;
80179;SDS011;69505;52.134;5.438;2023-06-04T11:06:45;2.28;;;1.00;;
80179;SDS011;69505;52.134;5.438;2023-06-04T11:09:12;3.58;;;1.15;;
80179;SDS011;69505;52.134;5.438;2023-06-04T11:11:43;4.82;;;0.93;;
80179;SDS011;69505;52.134;5.438;2023-06-04T11:14:13;6.85;;;1.30;;
80179;SDS011;69505;52.134;5.438;2023-06-04T11:16:39;2.55;;;1.20;;
80179;SDS011;69505;52.134;5.438;2023-06-04T11:19:06;3.35;;;1.00;;
80179;SDS011;69505;52.134;5.438;2023-06-04T11:21:35;5.38;;;1.23;;
80179;SDS011;69505;52.134;5.438;2023-06-04T11:24:04;2.95;;;1.10;;
80179;SDS011;69505;52.134;5.438;2023-06-04T11:26:32;4.80;;;1.20;;
80179;SDS011;69505;52.134;5.438;2023-06-04T11:29:02;3.55;;;1.00;;
80179;SDS011;69505;52.134;5.438;2023-06-04T11:31:41;4.53;;;1.10;;
80179;SDS011;69505;52.134;5.438;2023-06-04T11:34:09;3.08;;;0.70;;
80179;SDS011;69505;52.134;5.438;2023-06-04T11:36:38;2.83;;;1.15;;
80179;SDS011;69505;52.134;5.438;2023-06-04T11:39:05;4.20;;;1.40;;
80179;SDS011;69505;52.134;5.438;2023-06-04T11:41:33;3.58;;;1.30;;
80179;SDS011;69505;52.134;5.438;2023-06-04T11:44:02;3.55;;;1.20;;
80179;SDS011;69505;52.134;5.438;2023-06-04T11:46:35;2.65;;;0.90;;
80179;SDS011;69505;52.134;5.438;2023-06-04T11:49:05;3.63;;;1.15;;
80179;SDS011;69505;52.134;5.438;2023-06-04T11:51:32;3.97;;;1.15;;
80179;SDS011;69505;52.134;5.438;2023-06-04T11:53:59;2.22;;;1.25;;
80179;SDS011;69505;52.134;5.438;2023-06-04T11:56:26;2.90;;;1.20;;
80179;SDS011;69505;52.134;5.438;2023-06-04T11:58:54;2.28;;;1.13;;
80179;SDS011;69505;52.134;5.438;2023-06-04T12:01:21;3.08;;;1.05;;
80179;SDS011;69505;52.134;5.438;2023-06-04T12:03:49;2.33;;;1.02;;
80179;SDS011;69505;52.134;5.438;2023-06-04T12:06:16;1.92;;;1.10;;
80179;SDS011;69505;52.134;5.438;2023-06-04T12:08:49;3.97;;;1.27;;
80179;SDS011;69505;52.134;5.438;2023-06-04T12:13:56;3.50;;;1.05;;
80179;SDS011;69505;52.134;5.438;2023-06-04T12:16:24;2.90;;;1.02;;
80179;SDS011;69505;52.134;5.438;2023-06-04T12:18:52;3.17;;;1.10;;
80179;SDS011;69505;52.134;5.438;2023-06-04T12:21:24;4.07;;;1.20;;
80179;SDS011;69505;52.134;5.438;2023-06-04T12:24:05;3.63;;;0.80;;
80179;SDS011;69505;52.134;5.438;2023-06-04T12:26:40;2.30;;;1.00;;
80179;SDS011;69505;52.134;5.438;2023-06-04T12:29:11;3.80;;;1.02;;
80179;SDS011;69505;52.134;5.438;2023-06-04T12:31:45;3.20;;;0.57;;
80179;SDS011;69505;52.134;5.438;2023-06-04T12:34:13;2.33;;;0.88;;
80179;SDS011;69505;52.134;5.438;2023-06-04T12:36:40;3.17;;;1.20;;
80179;SDS011;69505;52.134;5.438;2023-06-04T12:39:07;3.05;;;1.27;;
80179;SDS011;69505;52.134;5.438;2023-06-04T12:41:33;4.13;;;1.33;;
80179;SDS011;69505;52.134;5.438;2023-06-04T12:44:00;3.70;;;1.00;;
80179;SDS011;69505;52.134;5.438;2023-06-04T12:46:27;2.92;;;1.30;;
80179;SDS011;69505;52.134;5.438;2023-06-04T12:48:54;3.22;;;1.13;;
80179;SDS011;69505;52.134;5.438;2023-06-04T12:51:21;3.45;;;0.70;;
80179;SDS011;69505;52.134;5.438;2023-06-04T12:53:48;3.78;;;1.02;;
80179;SDS011;69505;52.134;5.438;2023-06-04T12:56:15;3.17;;;1.20;;
80179;SDS011;69505;52.134;5.438;2023-06-04T12:58:42;7.05;;;1.05;;
80179;SDS011;69505;52.134;5.438;2023-06-04T13:01:09;2.78;;;1.20;;
80179;SDS011;69505;52.134;5.438;2023-06-04T13:03:36;2.70;;;1.08;;
80179;SDS011;69505;52.134;5.438;2023-06-04T13:08:32;2.45;;;1.08;;
80179;SDS011;69505;52.134;5.438;2023-06-04T13:10:59;6.00;;;1.70;;
80179;SDS011;69505;52.134;5.438;2023-06-04T13:13:26;2.55;;;1.05;;
80179;SDS011;69505;52.134;5.438;2023-06-04T13:15:53;3.10;;;1.35;;
80179;SDS011;69505;52.134;5.438;2023-06-04T13:18:20;2.72;;;1.50;;
80179;SDS011;69505;52.134;5.438;2023-06-04T13:20:46;2.45;;;1.00;;
80179;SDS011;69505;52.134;5.438;2023-06-04T13:23:15;4.57;;;1.08;;
80179;SDS011;69505;52.134;5.438;2023-06-04T13:25:42;4.57;;;1.20;;
80179;SDS011;69505;52.134;5.438;2023-06-04T13:28:08;3.10;;;1.00;;
80179;SDS011;69505;52.134;5.438;2023-06-04T13:30:35;5.07;;;1.35;;
80179;SDS011;69505;52.134;5.438;2023-06-04T13:33:06;3.75;;;1.30;;
80179;SDS011;69505;52.134;5.438;2023-06-04T13:35:33;2.80;;;1.20;;
80179;SDS011;69505;52.134;5.438;2023-06-04T13:38:02;2.17;;;1.15;;
80179;SDS011;69505;52.134;5.438;2023-06-04T13:40:30;3.28;;;1.20;;
80179;SDS011;69505;52.134;5.438;2023-06-04T13:42:57;3.53;;;1.27;;
80179;SDS011;69505;52.134;5.438;2023-06-04T13:45:24;3.80;;;1.15;;
80179;SDS011;69505;52.134;5.438;2023-06-04T13:47:50;2.75;;;0.75;;
80179;SDS011;69505;52.134;5.438;2023-06-04T13:50:20;3.25;;;1.35;;
80179;SDS011;69505;52.134;5.438;2023-06-04T13:52:47;5.63;;;1.27;;
80179;SDS011;69505;52.134;5.438;2023-06-04T13:55:14;4.00;;;1.33;;
80179;SDS011;69505;52.134;5.438;2023-06-04T13:57:40;3.92;;;1.13;;
80179;SDS011;69505;52.134;5.438;2023-06-04T14:00:07;3.78;;;1.30;;
80179;SDS011;69505;52.134;5.438;2023-06-04T14:02:34;3.85;;;1.48;;
80179;SDS011;69505;52.134;5.438;2023-06-04T14:05:01;3.50;;;1.05;;
80179;SDS011;69505;52.134;5.438;2023-06-04T14:07:28;2.70;;;1.10;;
80179;SDS011;69505;52.134;5.438;2023-06-04T14:09:54;3.75;;;1.50;;
80179;SDS011;69505;52.134;5.438;2023-06-04T14:12:21;5.85;;;1.30;;
80179;SDS011;69505;52.134;5.438;2023-06-04T14:14:49;3.92;;;1.33;;
80179;SDS011;69505;52.134;5.438;2023-06-04T14:17:16;4.13;;;1.15;;
80179;SDS011;69505;52.134;5.438;2023-06-04T14:19:43;4.28;;;1.25;;
80179;SDS011;69505;52.134;5.438;2023-06-04T14:22:10;3.35;;;1.25;;
80179;SDS011;69505;52.134;5.438;2023-06-04T14:24:40;3.08;;;1.48;;
80179;SDS011;69505;52.134;5.438;2023-06-04T14:27:08;4.70;;;0.85;;
80179;SDS011;69505;52.134;5.438;2023-06-04T14:29:35;4.00;;;1.40;;
80179;SDS011;69505;52.134;5.438;2023-06-04T14:32:06;5.15;;;1.35;;
80179;SDS011;69505;52.134;5.438;2023-06-04T14:34:33;4.22;;;1.40;;
80179;SDS011;69505;52.134;5.438;2023-06-04T14:36:59;6.57;;;1.20;;
80179;SDS011;69505;52.134;5.438;2023-06-04T14:39:26;3.30;;;1.15;;
80179;SDS011;69505;52.134;5.438;2023-06-04T14:41:53;5.60;;;1.00;;
80179;SDS011;69505;52.134;5.438;2023-06-04T14:44:20;3.92;;;1.10;;
80179;SDS011;69505;52.134;5.438;2023-06-04T14:46:48;4.00;;;1.20;;
80179;SDS011;69505;52.134;5.438;2023-06-04T14:49:17;4.80;;;1.38;;
80179;SDS011;69505;52.134;5.438;2023-06-04T14:51:44;5.20;;;1.20;;
80179;SDS011;69505;52.134;5.438;2023-06-04T14:54:11;3.42;;;1.30;;
80179;SDS011;69505;52.134;5.438;2023-06-04T14:56:38;8.00;;;1.15;;
80179;SDS011;69505;52.134;5.438;2023-06-04T14:59:05;4.18;;;1.40;;
80179;SDS011;69505;52.134;5.438;2023-06-04T15:01:35;4.47;;;1.50;;
80179;SDS011;69505;52.134;5.438;2023-06-04T15:04:03;3.60;;;1.70;;
80179;SDS011;69505;52.134;5.438;2023-06-04T15:06:30;3.75;;;1.35;;
80179;SDS011;69505;52.134;5.438;2023-06-04T15:08:57;3.30;;;1.20;;
80179;SDS011;69505;52.134;5.438;2023-06-04T15:11:24;6.47;;;1.48;;